Time;durP1;ratioP1;P1;durP2;ratioP2;P2;SDS_P1;SDS_P2;PMS_P1;PMS_P2;Temp;Humidity;BMP_temperature;BMP_pressure;BME280_temperature;BME280_humidity;BME280_pressure;Samples;Min_cycle;Max_cycle;Signal;HPM_P1;HPM_P2
2022/11/08 00:02:13;;;;;;;;;;;13.40;99.90;;;;;;4957554;28;20828;-84
2022/11/08 00:04:39;;;;;;;0.50;0.50;;;13.40;99.90;;;;;;4933665;28;19925;-82
2022/11/08 00:15:18;;;;;;;0.50;0.50;;;13.30;99.90;;;;;;4961198;28;20460;-85
2022/11/08 00:17:44;;;;;;;0.43;0.43;;;13.30;99.90;;;;;;4945383;28;20083;-84
2022/11/08 00:20:12;;;;;;;0.50;0.50;;;13.20;99.90;;;;;;4951386;28;20045;-93
2022/11/08 00:22:38;;;;;;;0.50;0.50;;;13.10;99.90;;;;;;4924842;28;20245;-83
2022/11/08 00:25:04;;;;;;;0.50;0.50;;;13.10;99.90;;;;;;4955080;28;20055;-84
2022/11/08 00:27:30;;;;;;;0.50;0.50;;;13.10;99.90;;;;;;4959600;28;20630;-81
2022/11/08 00:29:56;;;;;;;0.50;0.50;;;13.10;99.90;;;;;;4958958;28;20052;-84
2022/11/08 00:32:24;;;;;;;0.50;0.50;;;13.00;99.90;;;;;;4961505;28;21122;-87
2022/11/08 00:34:51;;;;;;;0.50;0.50;;;13.00;99.90;;;;;;4963100;28;20759;-85
2022/11/08 00:37:21;;;;;;;0.50;0.50;;;13.00;99.90;;;;;;4954967;28;20049;-86
2022/11/08 00:39:47;;;;;;;0.50;0.50;;;13.00;99.90;;;;;;4948372;28;20465;-84
2022/11/08 00:42:13;;;;;;;0.50;0.50;;;13.00;99.90;;;;;;4942739;28;20071;-81
2022/11/08 00:44:39;;;;;;;0.50;0.50;;;13.00;99.90;;;;;;4955158;28;20079;-85
2022/11/08 00:47:05;;;;;;;0.50;0.50;;;13.00;99.90;;;;;;4938523;28;20244;-82
2022/11/08 00:49:31;;;;;;;0.50;0.50;;;13.00;99.90;;;;;;4952267;28;20076;-83
2022/11/08 00:51:57;;;;;;;0.50;0.50;;;13.00;99.90;;;;;;4958862;28;21025;-82
2022/11/08 00:54:23;;;;;;;0.50;0.50;;;13.00;99.90;;;;;;4955381;28;20585;-82
2022/11/08 00:56:49;;;;;;;0.45;0.45;;;13.00;99.90;;;;;;4977984;28;20831;-84
2022/11/08 00:59:16;;;;;;;0.50;0.50;;;13.00;99.90;;;;;;4921541;28;20143;-83
2022/11/08 01:01:42;;;;;;;0.50;0.50;;;12.90;99.90;;;;;;4965080;28;20122;-83
2022/11/08 01:04:10;;;;;;;0.50;0.50;;;12.90;99.90;;;;;;4970056;28;20228;-83
2022/11/08 01:06:38;;;;;;;0.50;0.50;;;12.90;99.90;;;;;;4961872;28;20044;-85
2022/11/08 01:09:04;;;;;;;0.50;0.50;;;12.80;99.90;;;;;;4960024;28;20908;-84
2022/11/08 01:11:30;;;;;;;0.50;0.50;;;12.70;99.90;;;;;;4965566;28;20300;-83
2022/11/08 01:13:58;;;;;;;0.50;0.50;;;12.70;99.90;;;;;;4962201;28;20896;-86
2022/11/08 01:16:27;;;;;;;0.50;0.50;;;12.70;99.90;;;;;;4962519;28;20118;-84
2022/11/08 01:18:55;;;;;;;0.50;0.50;;;12.50;99.90;;;;;;4966825;28;20573;-82
2022/11/08 01:21:21;;;;;;;0.50;0.50;;;12.60;99.90;;;;;;4968903;28;20502;-85
2022/11/08 01:23:47;;;;;;;0.50;0.50;;;12.50;99.90;;;;;;4963709;28;21046;-82
2022/11/08 01:26:16;;;;;;;0.50;0.50;;;12.40;99.90;;;;;;4963207;28;20937;-84
2022/11/08 01:28:42;;;;;;;0.50;0.50;;;12.40;99.90;;;;;;4958770;28;20832;-83
2022/11/08 01:31:19;;;;;;;0.50;0.50;;;12.50;99.90;;;;;;4941397;28;20061;-84
2022/11/08 01:33:46;;;;;;;0.50;0.50;;;12.40;99.90;;;;;;4936921;28;20893;-84
2022/11/08 01:36:14;;;;;;;0.50;0.50;;;12.40;99.90;;;;;;4947349;28;20971;-84
2022/11/08 01:38:40;;;;;;;0.50;0.50;;;12.40;99.90;;;;;;4950037;28;20661;-85
2022/11/08 01:41:06;;;;;;;0.50;0.50;;;12.40;99.90;;;;;;4903869;28;20053;-83
2022/11/08 01:43:37;;;;;;;0.50;0.50;;;12.40;99.90;;;;;;4940234;28;20132;-85
2022/11/08 01:46:09;;;;;;;0.50;0.50;;;12.40;99.90;;;;;;4937129;28;20435;-86
2022/11/08 01:48:42;;;;;;;0.50;0.50;;;12.50;99.90;;;;;;4933813;28;20514;-84
2022/11/08 01:51:11;;;;;;;0.47;0.47;;;12.50;99.90;;;;;;4921530;28;20102;-85
2022/11/08 01:53:37;;;;;;;0.50;0.50;;;12.60;99.90;;;;;;4943283;28;20079;-84
2022/11/08 01:56:04;;;;;;;0.50;0.50;;;12.60;99.90;;;;;;4935513;28;20539;-85
2022/11/08 01:58:33;;;;;;;0.50;0.50;;;12.70;99.90;;;;;;4940104;28;20068;-85
2022/11/08 02:01:00;;;;;;;0.50;0.50;;;12.70;99.90;;;;;;4935142;28;20998;-82
2022/11/08 02:03:28;;;;;;;0.50;0.50;;;12.80;99.90;;;;;;4936834;28;20508;-85
2022/11/08 02:05:53;;;;;;;0.50;0.50;;;12.70;99.90;;;;;;4920900;28;20090;-86
2022/11/08 02:08:25;;;;;;;0.50;0.50;;;12.80;99.90;;;;;;4938251;28;20053;-84
2022/11/08 02:10:52;;;;;;;0.50;0.50;;;12.80;99.90;;;;;;4940537;28;20041;-82
2022/11/08 02:13:23;;;;;;;0.45;0.45;;;12.80;99.90;;;;;;4935117;28;20045;-88
2022/11/08 02:15:49;;;;;;;0.50;0.50;;;12.80;99.90;;;;;;4946148;28;20113;-82
2022/11/08 02:18:16;;;;;;;0.50;0.50;;;12.70;99.90;;;;;;4939489;28;20245;-82
2022/11/08 02:21:16;;;;;;;0.50;0.50;;;12.70;99.90;;;;;;4952080;28;20469;-83
2022/11/08 02:24:12;;;;;;;0.50;0.50;;;12.60;99.90;;;;;;4940166;28;20055;-81
2022/11/08 02:26:39;;;;;;;0.50;0.50;;;12.50;99.90;;;;;;4907189;28;20049;-82
2022/11/08 02:29:25;;;;;;;0.50;0.50;;;12.50;99.90;;;;;;4921925;28;20073;-83
2022/11/08 02:31:52;;;;;;;0.50;0.50;;;12.40;99.90;;;;;;4958795;28;20059;-82
2022/11/08 02:34:23;;;;;;;0.50;0.50;;;12.40;99.90;;;;;;4951074;28;20268;-82
2022/11/08 02:36:49;;;;;;;0.50;0.50;;;12.40;99.90;;;;;;4955109;28;20623;-85
2022/11/08 02:39:15;;;;;;;0.50;0.50;;;12.30;99.90;;;;;;4955585;28;20856;-82
2022/11/08 02:41:43;;;;;;;0.50;0.50;;;12.30;99.90;;;;;;4977793;28;20052;-81
2022/11/08 02:44:09;;;;;;;0.50;0.50;;;12.20;99.90;;;;;;4952513;28;20445;-83
2022/11/08 02:46:35;;;;;;;0.50;0.50;;;12.20;99.90;;;;;;4939301;28;21136;-83
2022/11/08 02:49:01;;;;;;;0.50;0.50;;;12.10;99.90;;;;;;4945056;28;20369;-82
2022/11/08 02:51:26;;;;;;;0.50;0.50;;;12.10;99.90;;;;;;4959234;28;20484;-83
2022/11/08 02:53:52;;;;;;;0.50;0.50;;;12.20;99.90;;;;;;4958785;28;20242;-84
2022/11/08 02:56:18;;;;;;;0.50;0.50;;;12.10;99.90;;;;;;4942672;28;20584;-82
2022/11/08 02:58:43;;;;;;;0.50;0.50;;;12.10;99.90;;;;;;4953381;28;20041;-84
2022/11/08 03:01:09;;;;;;;0.50;0.50;;;12.10;99.90;;;;;;4942539;28;20052;-83
2022/11/08 03:03:35;;;;;;;0.50;0.50;;;12.10;99.90;;;;;;4956372;28;20061;-82
2022/11/08 03:06:00;;;;;;;0.50;0.50;;;12.10;99.90;;;;;;4954374;28;20040;-83
2022/11/08 03:08:26;;;;;;;0.50;0.50;;;12.10;99.90;;;;;;4955408;28;20083;-84
2022/11/08 03:10:52;;;;;;;0.50;0.50;;;12.10;99.90;;;;;;4958673;28;20568;-83
2022/11/08 03:13:17;;;;;;;0.50;0.50;;;12.10;99.90;;;;;;4963959;28;20043;-84
2022/11/08 03:15:43;;;;;;;0.50;0.50;;;12.10;99.90;;;;;;4930130;28;20076;-85
2022/11/08 03:18:09;;;;;;;0.50;0.50;;;12.10;99.90;;;;;;4955799;28;20079;-81
2022/11/08 03:20:35;;;;;;;0.50;0.50;;;12.10;99.90;;;;;;4945013;28;20540;-82
2022/11/08 03:23:03;;;;;;;0.50;0.50;;;12.10;99.90;;;;;;4956232;28;20462;-81
2022/11/08 03:25:29;;;;;;;0.50;0.50;;;12.10;99.90;;;;;;4955193;28;20053;-81
2022/11/08 03:27:55;;;;;;;0.50;0.50;;;12.00;99.90;;;;;;4959068;28;20439;-87
2022/11/08 03:30:21;;;;;;;0.50;0.50;;;12.00;99.90;;;;;;4939956;28;20047;-82
2022/11/08 03:32:48;;;;;;;0.50;0.50;;;12.00;99.90;;;;;;4954712;28;20448;-85
2022/11/08 03:35:14;;;;;;;0.50;0.50;;;12.00;99.90;;;;;;4968239;28;20497;-85
2022/11/08 03:37:48;;;;;;;0.50;0.50;;;12.00;99.90;;;;;;4962934;28;20216;-81
2022/11/08 03:40:13;;;;;;;0.40;0.40;;;12.00;99.90;;;;;;4964341;28;20060;-83
2022/11/08 03:42:39;;;;;;;0.50;0.50;;;12.00;99.90;;;;;;4963817;28;20063;-82
2022/11/08 03:45:05;;;;;;;0.50;0.50;;;12.00;99.90;;;;;;4958713;28;20105;-83
2022/11/08 03:47:37;;;;;;;0.50;0.50;;;12.00;99.90;;;;;;4938153;28;20155;-86
2022/11/08 03:50:03;;;;;;;0.50;0.50;;;12.00;99.90;;;;;;4978455;28;20980;-84
2022/11/08 03:52:29;;;;;;;0.50;0.50;;;12.00;99.90;;;;;;4950628;28;20056;-82
2022/11/08 03:54:55;;;;;;;0.50;0.50;;;11.90;99.90;;;;;;4944394;28;20044;-83
2022/11/08 03:57:20;;;;;;;0.50;0.50;;;11.90;99.90;;;;;;4962476;28;20055;-87
2022/11/08 03:59:46;;;;;;;0.50;0.50;;;12.00;99.90;;;;;;4921867;28;20048;-84
2022/11/08 04:02:12;;;;;;;0.50;0.50;;;12.00;99.90;;;;;;4964626;28;20048;-87
2022/11/08 04:04:38;;;;;;;0.50;0.50;;;12.00;99.90;;;;;;4947130;28;20082;-83
2022/11/08 04:07:03;;;;;;;0.50;0.50;;;12.00;99.90;;;;;;4980694;28;20106;-86
2022/11/08 04:09:31;;;;;;;0.50;0.50;;;12.00;99.90;;;;;;4956469;28;20442;-83
2022/11/08 04:21:17;;;;;;;0.50;0.50;;;11.90;99.90;;;;;;4963719;28;20060;-82
2022/11/08 04:22:55;;;;;;;0.50;0.50;;;12.00;99.90;;;;;;4960860;28;20038;-85
2022/11/08 04:25:20;;;;;;;0.50;0.50;;;11.90;99.90;;;;;;4943918;28;20375;-85
2022/11/08 04:27:46;;;;;;;0.50;0.50;;;11.90;99.90;;;;;;4953055;28;20389;-82
2022/11/08 04:30:12;;;;;;;0.50;0.50;;;11.90;99.90;;;;;;4929034;28;20060;-81
2022/11/08 04:32:38;;;;;;;0.50;0.50;;;11.90;99.90;;;;;;4944897;28;20056;-82
2022/11/08 04:35:04;;;;;;;0.50;0.50;;;11.90;99.90;;;;;;4973681;28;20080;-82
2022/11/08 04:37:30;;;;;;;0.50;0.50;;;11.90;99.90;;;;;;4958800;28;20079;-82
2022/11/08 04:39:55;;;;;;;0.50;0.50;;;11.80;99.90;;;;;;4956086;28;20374;-82
2022/11/08 04:42:21;;;;;;;0.50;0.50;;;11.80;99.90;;;;;;4965491;28;20104;-82
2022/11/08 04:44:47;;;;;;;0.50;0.50;;;11.70;99.90;;;;;;4963517;28;20747;-83
2022/11/08 04:47:12;;;;;;;0.50;0.50;;;11.70;99.90;;;;;;4962289;28;20528;-81
2022/11/08 04:49:38;;;;;;;0.50;0.50;;;11.60;99.90;;;;;;4957658;28;20045;-83
2022/11/08 04:52:04;;;;;;;0.50;0.50;;;11.60;99.90;;;;;;4958733;28;20357;-81
2022/11/08 04:54:30;;;;;;;0.50;0.50;;;11.70;99.90;;;;;;4941104;28;20444;-80
2022/11/08 04:56:56;;;;;;;0.50;0.50;;;11.60;99.90;;;;;;4953098;28;20517;-82
2022/11/08 04:59:21;;;;;;;0.50;0.50;;;11.60;99.90;;;;;;4975751;28;20499;-82
2022/11/08 05:01:47;;;;;;;0.50;0.50;;;11.60;99.90;;;;;;4952772;28;20044;-82
2022/11/08 05:04:13;;;;;;;0.50;0.50;;;11.60;99.90;;;;;;4938082;28;20429;-83
2022/11/08 05:06:39;;;;;;;0.50;0.50;;;11.50;99.90;;;;;;4951666;28;20049;-80
2022/11/08 05:09:05;;;;;;;0.50;0.50;;;11.50;99.90;;;;;;4961673;28;20044;-81
2022/11/08 05:11:30;;;;;;;0.50;0.50;;;11.50;99.90;;;;;;4960970;28;20403;-81
2022/11/08 05:13:56;;;;;;;0.50;0.50;;;11.40;99.90;;;;;;4955177;28;20971;-80
2022/11/08 05:16:28;;;;;;;0.50;0.50;;;11.40;99.90;;;;;;4971194;28;20122;-80
2022/11/08 05:18:53;;;;;;;0.50;0.50;;;11.30;99.90;;;;;;4974688;28;20119;-81
2022/11/08 05:24:07;;;;;;;0.50;0.50;;;11.30;99.90;;;;;;4952981;28;20052;-82
2022/11/08 05:26:34;;;;;;;0.50;0.50;;;11.30;99.90;;;;;;4961726;28;20052;-79
2022/11/08 05:29:00;;;;;;;0.50;0.50;;;11.30;99.90;;;;;;4959857;28;20423;-82
2022/11/08 05:31:26;;;;;;;0.50;0.50;;;11.30;99.90;;;;;;4959946;28;20060;-80
2022/11/08 05:33:52;;;;;;;0.50;0.50;;;11.30;99.90;;;;;;4956677;28;20062;-81
2022/11/08 05:36:18;;;;;;;0.50;0.50;;;11.30;99.90;;;;;;4973090;28;20496;-81
2022/11/08 05:38:44;;;;;;;0.50;0.50;;;11.30;99.90;;;;;;4953144;28;21205;-81
2022/11/08 05:41:18;;;;;;;0.50;0.50;;;11.20;99.90;;;;;;4954205;28;20124;-81
2022/11/08 05:43:46;;;;;;;0.50;0.50;;;11.20;99.90;;;;;;4978844;28;20040;-80
2022/11/08 05:46:12;;;;;;;0.50;0.50;;;11.30;99.90;;;;;;4953822;28;20610;-78
2022/11/08 05:48:38;;;;;;;0.50;0.50;;;11.20;99.90;;;;;;4956892;28;20114;-79
2022/11/08 05:51:04;;;;;;;0.50;0.50;;;11.20;99.90;;;;;;4949138;28;20820;-79
2022/11/08 05:53:30;;;;;;;0.50;0.50;;;11.10;99.90;;;;;;4959889;28;20059;-80
2022/11/08 05:55:58;;;;;;;0.50;0.50;;;11.20;99.90;;;;;;4957254;28;20530;-81
2022/11/08 05:58:25;;;;;;;0.50;0.50;;;11.20;99.90;;;;;;4979952;28;20485;-80
2022/11/08 06:00:58;;;;;;;0.50;0.50;;;11.20;99.90;;;;;;4940379;28;20060;-80
2022/11/08 06:03:23;;;;;;;0.50;0.50;;;11.20;99.90;;;;;;4965599;28;20125;-79
2022/11/08 06:05:49;;;;;;;0.50;0.50;;;11.20;99.90;;;;;;4979606;28;20052;-79
2022/11/08 06:08:15;;;;;;;0.50;0.50;;;11.20;99.90;;;;;;4963796;28;20127;-80
2022/11/08 06:10:40;;;;;;;0.50;0.50;;;11.20;99.90;;;;;;4975208;28;20587;-80
2022/11/08 06:13:06;;;;;;;0.50;0.50;;;11.20;99.90;;;;;;4961525;28;20147;-80
2022/11/08 06:15:32;;;;;;;0.50;0.50;;;11.20;99.90;;;;;;4974979;28;20587;-80
2022/11/08 06:18:02;;;;;;;0.50;0.50;;;11.20;99.90;;;;;;4971293;28;20465;-80
2022/11/08 06:20:27;;;;;;;0.50;0.50;;;11.20;99.90;;;;;;4961431;28;20848;-80
2022/11/08 06:22:54;;;;;;;0.50;0.50;;;11.20;99.90;;;;;;4962442;28;20048;-80
2022/11/08 06:25:20;;;;;;;0.50;0.50;;;11.20;99.90;;;;;;4983847;28;20974;-82
2022/11/08 06:27:46;;;;;;;0.50;0.50;;;11.20;99.90;;;;;;4971669;28;20105;-79
2022/11/08 06:30:12;;;;;;;0.50;0.50;;;11.20;99.90;;;;;;4962591;28;20052;-80
2022/11/08 06:32:38;;;;;;;0.50;0.50;;;11.20;99.90;;;;;;4972993;28;21066;-78
2022/11/08 06:35:04;;;;;;;0.50;0.50;;;11.20;99.90;;;;;;4968989;28;20052;-77
2022/11/08 06:37:30;;;;;;;0.50;0.50;;;11.20;99.90;;;;;;4963015;28;20147;-80
2022/11/08 06:39:57;;;;;;;0.50;0.50;;;11.20;99.90;;;;;;4959840;28;20044;-79
2022/11/08 06:42:23;;;;;;;0.50;0.50;;;11.30;99.90;;;;;;4942162;28;20561;-78
2022/11/08 06:44:49;;;;;;;0.50;0.50;;;11.30;99.90;;;;;;4960904;28;20048;-79
2022/11/08 06:47:15;;;;;;;0.50;0.50;;;11.20;99.90;;;;;;4963151;28;20114;-77
2022/11/08 06:49:41;;;;;;;0.50;0.50;;;11.20;99.90;;;;;;4924499;28;20048;-78
2022/11/08 06:52:07;;;;;;;0.50;0.50;;;11.10;99.90;;;;;;4955447;28;20071;-78
2022/11/08 06:54:33;;;;;;;0.50;0.50;;;11.10;99.90;;;;;;4953147;28;20079;-82
2022/11/08 06:56:59;;;;;;;0.50;0.50;;;11.10;99.90;;;;;;4952718;28;20063;-79
2022/11/08 06:59:26;;;;;;;0.50;0.50;;;11.10;99.90;;;;;;4970938;28;20383;-79
2022/11/08 07:01:52;;;;;;;0.50;0.50;;;11.10;99.90;;;;;;4951989;28;20795;-78
2022/11/08 07:04:18;;;;;;;0.50;0.50;;;11.10;99.90;;;;;;4952861;28;20579;-78
2022/11/08 07:06:44;;;;;;;0.50;0.50;;;11.20;99.90;;;;;;4944569;28;20597;-79
2022/11/08 07:09:09;;;;;;;0.50;0.50;;;11.20;99.90;;;;;;4952821;28;20843;-78
2022/11/08 07:11:35;;;;;;;0.50;0.50;;;11.30;99.90;;;;;;4984614;28;20044;-79
2022/11/08 07:14:01;;;;;;;0.50;0.50;;;11.30;99.90;;;;;;4966393;28;20851;-76
2022/11/08 07:16:27;;;;;;;0.50;0.50;;;11.30;99.90;;;;;;4976954;28;20406;-78
2022/11/08 07:18:54;;;;;;;0.50;0.50;;;11.40;99.90;;;;;;4954759;28;20055;-79
2022/11/08 07:21:21;;;;;;;0.50;0.50;;;11.40;99.90;;;;;;4966219;28;20052;-80
2022/11/08 07:23:47;;;;;;;0.50;0.50;;;11.40;99.90;;;;;;4978779;28;20367;-80
2022/11/08 07:26:14;;;;;;;0.50;0.50;;;11.40;99.90;;;;;;4961513;28;20059;-79
2022/11/08 07:28:40;;;;;;;0.50;0.50;;;11.40;99.90;;;;;;4981193;28;20048;-79
2022/11/08 07:31:08;;;;;;;0.50;0.50;;;11.40;99.90;;;;;;4962834;28;20106;-77
2022/11/08 07:33:34;;;;;;;0.50;0.50;;;11.50;99.90;;;;;;4955217;28;20457;-76
2022/11/08 07:36:00;;;;;;;0.50;0.50;;;11.50;99.90;;;;;;4981902;28;20895;-75
2022/11/08 07:38:26;;;;;;;0.50;0.50;;;11.60;99.90;;;;;;4982781;28;20049;-79
2022/11/08 07:40:58;;;;;;;0.50;0.50;;;11.60;99.90;;;;;;4954812;28;20663;-76
2022/11/08 07:43:25;;;;;;;0.50;0.50;;;11.70;99.90;;;;;;4974405;28;20048;-77
2022/11/08 07:45:57;;;;;;;0.50;0.50;;;11.70;99.90;;;;;;4956900;28;20058;-79
2022/11/08 07:48:24;;;;;;;0.50;0.50;;;11.80;99.90;;;;;;4940392;28;20044;-79
2022/11/08 07:50:50;;;;;;;0.50;0.50;;;11.80;99.90;;;;;;4951482;28;20568;-79
2022/11/08 07:53:16;;;;;;;0.50;0.50;;;11.80;99.90;;;;;;4960724;28;20062;-81
2022/11/08 07:55:44;;;;;;;0.50;0.50;;;11.80;99.90;;;;;;4963693;28;20072;-79
2022/11/08 07:58:10;;;;;;;0.50;0.50;;;11.80;99.90;;;;;;4959188;28;20499;-80
2022/11/08 08:00:39;;;;;;;0.50;0.50;;;11.80;99.90;;;;;;4978083;28;20507;-79
2022/11/08 08:03:06;;;;;;;0.50;0.50;;;11.80;99.90;;;;;;4975081;28;20529;-79
2022/11/08 08:05:34;;;;;;;0.50;0.50;;;11.80;99.90;;;;;;4966057;28;20495;-81
2022/11/08 08:08:01;;;;;;;0.50;0.50;;;11.90;99.90;;;;;;4944070;28;20579;-78
2022/11/08 08:10:27;;;;;;;0.50;0.50;;;11.90;99.90;;;;;;4935438;28;20040;-77
2022/11/08 08:12:54;;;;;;;0.60;0.60;;;12.00;99.90;;;;;;4941143;28;20471;-84
2022/11/08 08:15:20;;;;;;;0.50;0.50;;;12.10;99.90;;;;;;4953857;28;20049;-81
2022/11/08 08:17:46;;;;;;;0.50;0.50;;;12.20;99.90;;;;;;4949518;28;20530;-79
2022/11/08 08:20:12;;;;;;;0.50;0.50;;;12.30;99.90;;;;;;4957937;28;20562;-81
2022/11/08 08:22:48;;;;;;;0.50;0.50;;;12.40;99.90;;;;;;4954262;28;20401;-81
2022/11/08 08:25:15;;;;;;;0.50;0.50;;;12.50;99.90;;;;;;4976271;28;20063;-80
2022/11/08 08:27:49;;;;;;;0.50;0.50;;;12.70;99.90;;;;;;4969615;28;20043;-80
2022/11/08 08:30:16;;;;;;;0.50;0.50;;;12.80;99.90;;;;;;4963285;28;20048;-80
2022/11/08 08:32:42;;;;;;;0.50;0.50;;;12.90;99.90;;;;;;4957376;28;20889;-79
2022/11/08 08:35:08;;;;;;;0.50;0.50;;;13.00;99.90;;;;;;4951900;28;20447;-85
2022/11/08 08:37:33;;;;;;;0.50;0.50;;;13.00;99.90;;;;;;4954164;28;20433;-78
2022/11/08 08:39:59;;;;;;;0.50;0.50;;;13.10;99.90;;;;;;4963518;28;20117;-82
2022/11/08 08:42:25;;;;;;;0.50;0.50;;;13.20;99.90;;;;;;4954503;28;20437;-80
2022/11/08 08:44:51;;;;;;;0.52;0.52;;;13.30;99.90;;;;;;4958900;28;20381;-80
2022/11/08 08:47:16;;;;;;;0.50;0.50;;;13.40;99.90;;;;;;4960883;28;20346;-77
2022/11/08 08:49:42;;;;;;;0.50;0.50;;;13.40;99.90;;;;;;4957806;28;20128;-79
2022/11/08 08:52:08;;;;;;;0.50;0.50;;;13.40;99.90;;;;;;4978022;28;20893;-80
2022/11/08 08:54:33;;;;;;;0.50;0.50;;;13.40;99.90;;;;;;4971276;28;20592;-84
2022/11/08 08:56:59;;;;;;;0.50;0.50;;;13.40;99.90;;;;;;4955110;28;20047;-79
2022/11/08 08:59:29;;;;;;;0.50;0.50;;;13.50;99.90;;;;;;4955584;28;20076;-80
2022/11/08 09:01:55;;;;;;;0.50;0.50;;;13.50;99.90;;;;;;4937929;28;20489;-82
2022/11/08 09:04:21;;;;;;;0.50;0.50;;;13.50;99.90;;;;;;4968362;28;20372;-81
2022/11/08 09:06:47;;;;;;;0.50;0.50;;;13.50;99.90;;;;;;4957844;28;20036;-84
2022/11/08 09:09:13;;;;;;;0.50;0.50;;;13.70;99.90;;;;;;4937292;28;20056;-78
2022/11/08 09:11:38;;;;;;;0.50;0.50;;;13.70;99.90;;;;;;4951348;28;20167;-80
2022/11/08 09:14:04;;;;;;;0.40;0.40;;;13.80;99.90;;;;;;4978485;28;20078;-82
2022/11/08 09:16:30;;;;;;;0.50;0.50;;;13.90;99.90;;;;;;4958503;28;20952;-80
2022/11/08 09:18:56;;;;;;;0.50;0.50;;;14.10;99.90;;;;;;4974304;28;20045;-78
2022/11/08 09:21:21;;;;;;;0.50;0.50;;;14.10;99.90;;;;;;4942103;28;20073;-84
2022/11/08 09:23:47;;;;;;;0.45;0.45;;;14.20;99.90;;;;;;4977892;28;20445;-79
2022/11/08 09:26:13;;;;;;;0.50;0.50;;;14.20;99.90;;;;;;4940148;28;20048;-81
2022/11/08 09:28:38;;;;;;;0.50;0.50;;;14.30;99.90;;;;;;4975041;28;20382;-82
2022/11/08 09:31:07;;;;;;;0.40;0.40;;;14.40;99.90;;;;;;4946721;28;20542;-82
2022/11/08 09:33:34;;;;;;;0.40;0.40;;;14.50;99.90;;;;;;4960959;28;20091;-82
2022/11/08 09:36:01;;;;;;;0.50;0.50;;;14.70;99.90;;;;;;4958619;28;20862;-85
2022/11/08 09:38:26;;;;;;;0.50;0.50;;;14.70;99.90;;;;;;4960623;28;20786;-86
2022/11/08 09:41:01;;;;;;;0.50;0.50;;;14.70;99.90;;;;;;4963599;28;20041;-82
2022/11/08 09:43:50;;;;;;;0.50;0.50;;;14.80;99.90;;;;;;4960721;28;20436;-81
2022/11/08 09:46:38;;;;;;;0.40;0.40;;;14.90;99.90;;;;;;4975042;28;20665;-84
2022/11/08 09:49:09;;;;;;;0.50;0.50;;;15.00;99.90;;;;;;4963650;28;20387;-83
2022/11/08 09:51:35;;;;;;;0.50;0.50;;;15.00;99.90;;;;;;4940929;28;20502;-84
2022/11/08 09:54:05;;;;;;;0.47;0.47;;;15.00;99.90;;;;;;4962425;28;20063;-83
2022/11/08 09:56:35;;;;;;;0.40;0.40;;;14.90;99.90;;;;;;4964988;28;20048;-85
2022/11/08 09:59:03;;;;;;;0.50;0.50;;;14.90;99.90;;;;;;4964820;28;20048;-83
2022/11/08 10:01:34;;;;;;;0.50;0.50;;;14.90;99.90;;;;;;4960968;28;20056;-86
2022/11/08 10:04:22;;;;;;;0.50;0.50;;;14.90;99.90;;;;;;4958230;28;20073;-82
2022/11/08 10:07:00;;;;;;;0.50;0.50;;;14.90;99.90;;;;;;4977627;28;20077;-78
2022/11/08 10:09:29;;;;;;;0.50;0.50;;;14.90;99.90;;;;;;4955607;28;20448;-81
2022/11/08 10:12:00;;;;;;;0.50;0.50;;;14.90;99.90;;;;;;4959112;28;20236;-83
2022/11/08 10:14:29;;;;;;;0.50;0.50;;;14.90;99.90;;;;;;4963151;28;20040;-85
2022/11/08 10:17:35;;;;;;;0.50;0.50;;;15.00;99.90;;;;;;4964423;28;20594;-80
2022/11/08 10:20:43;;;;;;;0.50;0.50;;;14.90;99.90;;;;;;4942888;28;20214;-81
2022/11/08 10:23:22;;;;;;;0.50;0.50;;;15.00;99.90;;;;;;4963542;28;20614;-80
2022/11/08 10:25:56;;;;;;;0.50;0.50;;;15.10;99.90;;;;;;4963386;28;20080;-80
2022/11/08 10:28:51;;;;;;;0.50;0.50;;;15.10;99.90;;;;;;4960134;28;20174;-84
2022/11/08 10:31:19;;;;;;;0.50;0.50;;;15.10;99.90;;;;;;4949130;28;20993;-81
2022/11/08 10:33:56;;;;;;;0.50;0.50;;;15.10;99.90;;;;;;4961956;28;20623;-80
2022/11/08 10:36:53;;;;;;;0.50;0.50;;;15.10;99.90;;;;;;4959446;28;20498;-81
2022/11/08 10:39:33;;;;;;;0.40;0.40;;;15.10;99.90;;;;;;4949280;28;20852;-81
2022/11/08 10:42:08;;;;;;;0.50;0.50;;;15.10;99.90;;;;;;4954314;28;20056;-81
2022/11/08 10:44:34;;;;;;;0.43;0.43;;;15.00;99.90;;;;;;4958729;28;20536;-80
2022/11/08 10:47:04;;;;;;;0.50;0.50;;;15.10;99.90;;;;;;4961553;28;20097;-83
2022/11/08 10:49:39;;;;;;;0.50;0.50;;;15.10;99.90;;;;;;4957994;28;20048;-80
2022/11/08 10:52:11;;;;;;;0.50;0.50;;;15.10;99.90;;;;;;4961587;28;20185;-81
2022/11/08 10:54:51;;;;;;;0.43;0.43;;;15.10;99.90;;;;;;4958316;28;20452;-82
2022/11/08 10:57:43;;;;;;;0.40;0.40;;;15.10;99.90;;;;;;4979971;28;20040;-83
2022/11/08 11:00:22;;;;;;;0.40;0.40;;;15.10;99.90;;;;;;4958836;28;20609;-86
2022/11/08 11:02:51;;;;;;;0.50;0.50;;;15.10;99.90;;;;;;4981961;28;20378;-83
2022/11/08 11:05:17;;;;;;;0.50;0.50;;;15.10;99.90;;;;;;4956928;28;20048;-83
2022/11/08 11:08:00;;;;;;;0.50;0.50;;;15.10;99.90;;;;;;4961153;28;20617;-82
2022/11/08 11:10:33;;;;;;;0.50;0.50;;;15.10;99.90;;;;;;4956169;28;20131;-82
2022/11/08 11:13:05;;;;;;;0.40;0.40;;;15.20;99.90;;;;;;4964151;28;20540;-80
2022/11/08 11:15:46;;;;;;;0.50;0.50;;;15.20;99.90;;;;;;4974843;28;20109;-80
2022/11/08 11:18:31;;;;;;;0.45;0.45;;;15.20;99.90;;;;;;4950574;28;20056;-84
2022/11/08 11:21:03;;;;;;;0.50;0.50;;;15.30;99.90;;;;;;4950537;28;20044;-82
2022/11/08 11:23:39;;;;;;;0.50;0.50;;;15.30;99.90;;;;;;4963416;28;20044;-82
2022/11/08 11:26:33;;;;;;;0.50;0.50;;;15.40;99.90;;;;;;4965718;28;20052;-83
2022/11/08 11:29:25;;;;;;;0.50;0.50;;;15.30;99.90;;;;;;4977697;28;20044;-80
2022/11/08 11:31:52;;;;;;;0.50;0.50;;;15.30;99.90;;;;;;4977272;28;20298;-84
2022/11/08 11:34:18;;;;;;;0.50;0.50;;;15.30;99.90;;;;;;4959654;28;20059;-81
2022/11/08 11:37:03;;;;;;;0.50;0.50;;;15.30;99.90;;;;;;4957590;28;20426;-82
2022/11/08 11:39:56;;;;;;;0.50;0.50;;;15.50;99.90;;;;;;4963147;28;20067;-83
2022/11/08 11:42:35;;;;;;;0.50;0.50;;;15.60;99.90;;;;;;4965596;28;20221;-77
2022/11/08 11:45:07;;;;;;;0.50;0.50;;;15.60;99.90;;;;;;4958498;28;20052;-80
2022/11/08 11:47:41;;;;;;;0.50;0.50;;;15.70;99.90;;;;;;4961461;28;20402;-82
2022/11/08 11:50:28;;;;;;;0.50;0.50;;;15.60;99.90;;;;;;4958665;28;20254;-80
2022/11/08 11:52:56;;;;;;;0.45;0.45;;;15.60;99.90;;;;;;4979219;28;20365;-86
2022/11/08 11:55:37;;;;;;;0.50;0.50;;;15.60;99.90;;;;;;4986196;28;20940;-83
2022/11/08 11:58:33;;;;;;;0.50;0.50;;;15.50;99.90;;;;;;4943209;28;20047;-83
2022/11/08 12:01:24;;;;;;;0.40;0.40;;;15.50;99.90;;;;;;4938081;28;20102;-82
2022/11/08 12:04:20;;;;;;;0.40;0.40;;;15.40;99.90;;;;;;4979340;28;21050;-82
2022/11/08 12:07:10;;;;;;;0.80;0.80;;;15.40;99.90;;;;;;4958648;28;20040;-79
2022/11/08 12:09:45;;;;;;;0.50;0.50;;;15.30;99.90;;;;;;4953690;28;20114;-82
2022/11/08 12:12:30;;;;;;;0.50;0.50;;;15.30;99.90;;;;;;4960276;28;20306;-81
2022/11/08 12:15:01;;;;;;;0.50;0.50;;;15.30;99.90;;;;;;4978410;28;21003;-79
2022/11/08 12:17:45;;;;;;;0.50;0.50;;;15.30;99.90;;;;;;4982606;28;20459;-80
2022/11/08 12:20:23;;;;;;;0.50;0.50;;;15.40;99.90;;;;;;4958214;28;20053;-80
2022/11/08 12:23:07;;;;;;;0.50;0.50;;;15.50;99.90;;;;;;4979084;28;20410;-79
2022/11/08 12:25:57;;;;;;;0.50;0.50;;;15.50;99.90;;;;;;4958674;28;20515;-82
2022/11/08 12:29:02;;;;;;;0.50;0.50;;;15.50;99.90;;;;;;4953562;28;20531;-85
2022/11/08 12:31:33;;;;;;;0.50;0.50;;;15.70;99.90;;;;;;4944316;28;20059;-83
2022/11/08 12:33:59;;;;;;;0.50;0.50;;;15.70;99.90;;;;;;4961169;28;20807;-83
2022/11/08 12:36:37;;;;;;;0.50;0.50;;;15.80;99.90;;;;;;4959486;28;20056;-77
2022/11/08 12:39:08;;;;;;;0.50;0.50;;;15.60;99.90;;;;;;4973247;28;20155;-84
2022/11/08 12:41:54;;;;;;;0.40;0.40;;;15.50;99.90;;;;;;4977620;28;20378;-83
2022/11/08 12:44:28;;;;;;;0.50;0.50;;;15.50;99.90;;;;;;4959244;28;20404;-83
2022/11/08 12:47:17;;;;;;;0.50;0.50;;;15.40;99.90;;;;;;4975891;28;20501;-83
2022/11/08 12:49:59;;;;;;;0.50;0.50;;;15.50;99.90;;;;;;4928582;28;20098;-86
2022/11/08 12:52:39;;;;;;;0.50;0.50;;;15.60;99.90;;;;;;4959733;28;20402;-81
2022/11/08 12:55:32;;;;;;;0.50;0.50;;;15.90;99.90;;;;;;4970853;28;20055;-80
2022/11/08 12:58:00;;;;;;;0.50;0.50;;;16.10;99.90;;;;;;4959595;28;20131;-80
2022/11/08 13:00:28;;;;;;;0.43;0.43;;;16.00;99.90;;;;;;4963887;28;21099;-82
2022/11/08 13:03:09;;;;;;;0.50;0.50;;;16.00;99.90;;;;;;4963681;28;20076;-84
2022/11/08 13:05:51;;;;;;;0.50;0.50;;;16.10;99.90;;;;;;4961346;28;20044;-79
2022/11/08 13:08:25;;;;;;;0.50;0.50;;;16.00;99.90;;;;;;4977526;28;20041;-79
2022/11/08 13:11:01;;;;;;;0.50;0.50;;;16.00;99.90;;;;;;4979091;28;20068;-81
2022/11/08 13:13:52;;;;;;;0.50;0.50;;;16.20;99.90;;;;;;4962227;28;20051;-82
2022/11/08 13:16:20;;;;;;;0.50;0.50;;;16.00;99.90;;;;;;4953643;28;20434;-82
2022/11/08 13:18:50;;;;;;;0.50;0.50;;;16.00;99.90;;;;;;4981682;28;20182;-83
2022/11/08 13:21:28;;;;;;;0.50;0.50;;;16.00;99.90;;;;;;4957511;28;21045;-81
2022/11/08 13:24:00;;;;;;;0.45;0.45;;;16.30;99.90;;;;;;4959788;28;20049;-79